sensor_id;sensor_type;location;lat;lon;timestamp;temperature;humidity
27314;DHT22;14800;48.174;9.798;2023-10-08T00:01:35;16.50;70.20
27314;DHT22;14800;48.174;9.798;2023-10-08T00:04:00;16.50;70.30
27314;DHT22;14800;48.174;9.798;2023-10-08T00:06:29;16.50;70.30
27314;DHT22;14800;48.174;9.798;2023-10-08T00:08:56;16.60;70.40
27314;DHT22;14800;48.174;9.798;2023-10-08T00:11:35;16.60;70.40
27314;DHT22;14800;48.174;9.798;2023-10-08T00:14:02;16.60;70.60
27314;DHT22;14800;48.174;9.798;2023-10-08T00:16:30;16.60;70.40
27314;DHT22;14800;48.174;9.798;2023-10-08T00:18:59;16.60;70.30
27314;DHT22;14800;48.174;9.798;2023-10-08T00:21:29;16.60;70.30
27314;DHT22;14800;48.174;9.798;2023-10-08T00:23:59;16.60;70.20
27314;DHT22;14800;48.174;9.798;2023-10-08T00:26:25;16.60;70.40
27314;DHT22;14800;48.174;9.798;2023-10-08T00:29:04;16.60;70.40
27314;DHT22;14800;48.174;9.798;2023-10-08T00:31:41;16.60;70.30
27314;DHT22;14800;48.174;9.798;2023-10-08T00:34:10;16.60;70.40
27314;DHT22;14800;48.174;9.798;2023-10-08T00:36:40;16.50;70.40
27314;DHT22;14800;48.174;9.798;2023-10-08T00:39:07;16.50;70.50
27314;DHT22;14800;48.174;9.798;2023-10-08T00:41:45;16.50;70.60
27314;DHT22;14800;48.174;9.798;2023-10-08T00:44:13;16.50;70.90
27314;DHT22;14800;48.174;9.798;2023-10-08T00:46:47;16.40;70.90
27314;DHT22;14800;48.174;9.798;2023-10-08T00:49:15;16.50;71.00
27314;DHT22;14800;48.174;9.798;2023-10-08T00:51:44;16.40;70.90
27314;DHT22;14800;48.174;9.798;2023-10-08T00:54:12;16.40;71.10
27314;DHT22;14800;48.174;9.798;2023-10-08T00:56:46;16.40;71.50
27314;DHT22;14800;48.174;9.798;2023-10-08T00:59:19;16.40;71.60
27314;DHT22;14800;48.174;9.798;2023-10-08T01:01:49;16.40;71.50
27314;DHT22;14800;48.174;9.798;2023-10-08T01:04:30;16.40;71.60
27314;DHT22;14800;48.174;9.798;2023-10-08T01:07:00;16.40;71.60
27314;DHT22;14800;48.174;9.798;2023-10-08T01:09:40;16.40;71.70
27314;DHT22;14800;48.174;9.798;2023-10-08T01:12:15;16.40;71.70
27314;DHT22;14800;48.174;9.798;2023-10-08T01:14:42;16.40;71.80
27314;DHT22;14800;48.174;9.798;2023-10-08T01:17:12;16.40;72.00
27314;DHT22;14800;48.174;9.798;2023-10-08T01:19:42;16.40;72.00
27314;DHT22;14800;48.174;9.798;2023-10-08T01:22:13;16.40;72.10
27314;DHT22;14800;48.174;9.798;2023-10-08T01:24:44;16.30;72.10
27314;DHT22;14800;48.174;9.798;2023-10-08T01:27:11;16.40;72.10
27314;DHT22;14800;48.174;9.798;2023-10-08T01:29:40;16.40;72.10
27314;DHT22;14800;48.174;9.798;2023-10-08T01:32:09;16.40;72.30
27314;DHT22;14800;48.174;9.798;2023-10-08T01:34:37;16.40;72.20
27314;DHT22;14800;48.174;9.798;2023-10-08T01:37:03;16.40;72.30
27314;DHT22;14800;48.174;9.798;2023-10-08T01:39:37;16.40;72.30
27314;DHT22;14800;48.174;9.798;2023-10-08T01:42:07;16.40;72.30
27314;DHT22;14800;48.174;9.798;2023-10-08T01:44:40;16.50;72.30
27314;DHT22;14800;48.174;9.798;2023-10-08T01:47:06;16.50;72.10
27314;DHT22;14800;48.174;9.798;2023-10-08T01:49:32;16.40;72.00
27314;DHT22;14800;48.174;9.798;2023-10-08T01:51:59;16.50;72.10
27314;DHT22;14800;48.174;9.798;2023-10-08T01:54:30;16.50;72.00
27314;DHT22;14800;48.174;9.798;2023-10-08T01:57:01;16.50;71.90
27314;DHT22;14800;48.174;9.798;2023-10-08T01:59:26;16.50;71.80
27314;DHT22;14800;48.174;9.798;2023-10-08T02:01:52;16.50;71.80
27314;DHT22;14800;48.174;9.798;2023-10-08T02:04:22;16.50;71.70
27314;DHT22;14800;48.174;9.798;2023-10-08T02:06:47;16.50;71.60
27314;DHT22;14800;48.174;9.798;2023-10-08T02:09:13;16.50;71.60
27314;DHT22;14800;48.174;9.798;2023-10-08T02:11:46;16.50;71.50
27314;DHT22;14800;48.174;9.798;2023-10-08T02:14:16;16.50;71.50
27314;DHT22;14800;48.174;9.798;2023-10-08T02:16:43;16.50;71.30
27314;DHT22;14800;48.174;9.798;2023-10-08T02:19:08;16.50;71.20
27314;DHT22;14800;48.174;9.798;2023-10-08T02:21:36;16.50;71.20
27314;DHT22;14800;48.174;9.798;2023-10-08T02:24:08;16.40;71.00
27314;DHT22;14800;48.174;9.798;2023-10-08T02:26:36;16.40;71.10
27314;DHT22;14800;48.174;9.798;2023-10-08T02:29:02;16.40;70.90
27314;DHT22;14800;48.174;9.798;2023-10-08T02:31:31;16.40;70.90
27314;DHT22;14800;48.174;9.798;2023-10-08T02:33:57;16.40;71.00
27314;DHT22;14800;48.174;9.798;2023-10-08T02:36:24;16.50;70.90
27314;DHT22;14800;48.174;9.798;2023-10-08T02:38:49;16.50;70.80
27314;DHT22;14800;48.174;9.798;2023-10-08T02:41:16;16.50;70.70
27314;DHT22;14800;48.174;9.798;2023-10-08T02:43:42;16.50;70.60
27314;DHT22;14800;48.174;9.798;2023-10-08T02:46:10;16.50;70.50
27314;DHT22;14800;48.174;9.798;2023-10-08T02:48:40;16.50;70.40
27314;DHT22;14800;48.174;9.798;2023-10-08T02:51:06;16.50;70.30
27314;DHT22;14800;48.174;9.798;2023-10-08T02:53:41;16.60;70.20
27314;DHT22;14800;48.174;9.798;2023-10-08T02:56:08;16.60;70.20
27314;DHT22;14800;48.174;9.798;2023-10-08T02:58:38;16.60;70.00
27314;DHT22;14800;48.174;9.798;2023-10-08T03:01:05;16.60;69.90
27314;DHT22;14800;48.174;9.798;2023-10-08T03:03:31;16.60;69.90
27314;DHT22;14800;48.174;9.798;2023-10-08T03:05:58;16.60;69.90
27314;DHT22;14800;48.174;9.798;2023-10-08T03:08:24;16.60;69.70
27314;DHT22;14800;48.174;9.798;2023-10-08T03:10:53;16.70;69.80
27314;DHT22;14800;48.174;9.798;2023-10-08T03:13:22;16.60;69.70
27314;DHT22;14800;48.174;9.798;2023-10-08T03:15:48;16.60;69.70
27314;DHT22;14800;48.174;9.798;2023-10-08T03:18:13;16.60;69.60
27314;DHT22;14800;48.174;9.798;2023-10-08T03:20:42;16.60;69.50
27314;DHT22;14800;48.174;9.798;2023-10-08T03:23:09;16.60;69.60
27314;DHT22;14800;48.174;9.798;2023-10-08T03:25:58;16.60;69.50
27314;DHT22;14800;48.174;9.798;2023-10-08T03:28:35;16.60;69.50
27314;DHT22;14800;48.174;9.798;2023-10-08T03:31:01;16.60;69.50
27314;DHT22;14800;48.174;9.798;2023-10-08T03:33:40;16.60;69.50
27314;DHT22;14800;48.174;9.798;2023-10-08T03:36:06;16.60;69.50
27314;DHT22;14800;48.174;9.798;2023-10-08T03:38:55;16.60;69.50
27314;DHT22;14800;48.174;9.798;2023-10-08T03:41:23;16.50;69.30
27314;DHT22;14800;48.174;9.798;2023-10-08T03:43:53;16.60;69.30
27314;DHT22;14800;48.174;9.798;2023-10-08T03:46:21;16.60;69.30
27314;DHT22;14800;48.174;9.798;2023-10-08T03:48:49;16.50;69.30
27314;DHT22;14800;48.174;9.798;2023-10-08T03:51:17;16.50;69.30
27314;DHT22;14800;48.174;9.798;2023-10-08T03:53:47;16.50;69.40
27314;DHT22;14800;48.174;9.798;2023-10-08T03:56:32;16.50;69.40
27314;DHT22;14800;48.174;9.798;2023-10-08T03:59:04;16.40;69.40
27314;DHT22;14800;48.174;9.798;2023-10-08T04:01:39;16.40;69.60
27314;DHT22;14800;48.174;9.798;2023-10-08T04:04:06;16.40;69.70
27314;DHT22;14800;48.174;9.798;2023-10-08T04:06:42;16.30;69.70
27314;DHT22;14800;48.174;9.798;2023-10-08T04:09:15;16.20;69.50
27314;DHT22;14800;48.174;9.798;2023-10-08T04:11:51;16.20;69.70
27314;DHT22;14800;48.174;9.798;2023-10-08T04:14:24;16.10;69.80
27314;DHT22;14800;48.174;9.798;2023-10-08T04:16:50;16.10;70.00
27314;DHT22;14800;48.174;9.798;2023-10-08T04:19:21;16.00;70.00
27314;DHT22;14800;48.174;9.798;2023-10-08T04:21:53;16.00;70.00
27314;DHT22;14800;48.174;9.798;2023-10-08T04:24:26;16.00;70.00
27314;DHT22;14800;48.174;9.798;2023-10-08T04:27:01;16.00;70.00
27314;DHT22;14800;48.174;9.798;2023-10-08T04:29:33;16.00;69.90
27314;DHT22;14800;48.174;9.798;2023-10-08T04:32:01;16.00;69.90
27314;DHT22;14800;48.174;9.798;2023-10-08T04:34:35;16.00;69.90
27314;DHT22;14800;48.174;9.798;2023-10-08T04:37:01;16.00;69.90
27314;DHT22;14800;48.174;9.798;2023-10-08T04:39:28;16.00;69.70
27314;DHT22;14800;48.174;9.798;2023-10-08T04:42:01;16.00;69.70
27314;DHT22;14800;48.174;9.798;2023-10-08T04:44:38;16.00;69.70
27314;DHT22;14800;48.174;9.798;2023-10-08T04:47:07;16.00;69.70
27314;DHT22;14800;48.174;9.798;2023-10-08T04:49:55;16.00;69.70
27314;DHT22;14800;48.174;9.798;2023-10-08T04:52:22;16.00;69.70
27314;DHT22;14800;48.174;9.798;2023-10-08T04:54:50;16.00;69.70
27314;DHT22;14800;48.174;9.798;2023-10-08T04:57:22;15.90;69.70
27314;DHT22;14800;48.174;9.798;2023-10-08T04:59:48;16.00;69.90
27314;DHT22;14800;48.174;9.798;2023-10-08T05:02:16;15.90;69.70
27314;DHT22;14800;48.174;9.798;2023-10-08T05:04:45;15.90;69.70
27314;DHT22;14800;48.174;9.798;2023-10-08T05:07:21;15.90;69.80
27314;DHT22;14800;48.174;9.798;2023-10-08T05:10:06;15.90;69.90
27314;DHT22;14800;48.174;9.798;2023-10-08T05:12:32;15.80;69.70
27314;DHT22;14800;48.174;9.798;2023-10-08T05:14:58;15.80;69.90
27314;DHT22;14800;48.174;9.798;2023-10-08T05:17:46;15.80;70.80
27314;DHT22;14800;48.174;9.798;2023-10-08T05:20:15;15.80;70.30
27314;DHT22;14800;48.174;9.798;2023-10-08T05:22:59;15.80;70.20
27314;DHT22;14800;48.174;9.798;2023-10-08T05:25:56;15.70;70.10
27314;DHT22;14800;48.174;9.798;2023-10-08T05:28:46;15.70;70.30
27314;DHT22;14800;48.174;9.798;2023-10-08T05:31:29;15.70;70.20
27314;DHT22;14800;48.174;9.798;2023-10-08T05:34:13;15.60;70.40
27314;DHT22;14800;48.174;9.798;2023-10-08T05:37:01;15.60;70.40
27314;DHT22;14800;48.174;9.798;2023-10-08T05:39:30;15.60;70.40
27314;DHT22;14800;48.174;9.798;2023-10-08T05:42:09;15.50;70.50
27314;DHT22;14800;48.174;9.798;2023-10-08T05:44:58;15.50;70.70
27314;DHT22;14800;48.174;9.798;2023-10-08T05:47:40;15.50;70.80
27314;DHT22;14800;48.174;9.798;2023-10-08T05:50:17;15.40;70.90
27314;DHT22;14800;48.174;9.798;2023-10-08T05:52:43;15.40;71.10
27314;DHT22;14800;48.174;9.798;2023-10-08T05:55:31;15.40;71.30
27314;DHT22;14800;48.174;9.798;2023-10-08T05:58:06;15.30;71.40
27314;DHT22;14800;48.174;9.798;2023-10-08T06:00:45;15.40;72.00
27314;DHT22;14800;48.174;9.798;2023-10-08T06:03:26;15.30;71.60
27314;DHT22;14800;48.174;9.798;2023-10-08T06:06:02;15.30;71.80
27314;DHT22;14800;48.174;9.798;2023-10-08T06:08:37;15.30;71.80
27314;DHT22;14800;48.174;9.798;2023-10-08T06:11:20;15.30;72.00
27314;DHT22;14800;48.174;9.798;2023-10-08T06:14:05;15.30;72.20
27314;DHT22;14800;48.174;9.798;2023-10-08T06:16:45;15.20;72.20
27314;DHT22;14800;48.174;9.798;2023-10-08T06:19:13;15.30;72.40
27314;DHT22;14800;48.174;9.798;2023-10-08T06:21:40;15.30;73.20
27314;DHT22;14800;48.174;9.798;2023-10-08T06:24:07;15.20;72.40
27314;DHT22;14800;48.174;9.798;2023-10-08T06:26:39;15.20;72.60
27314;DHT22;14800;48.174;9.798;2023-10-08T06:29:11;15.20;72.90
27314;DHT22;14800;48.174;9.798;2023-10-08T06:31:56;15.20;73.10
27314;DHT22;14800;48.174;9.798;2023-10-08T06:34:23;15.20;73.10
27314;DHT22;14800;48.174;9.798;2023-10-08T06:36:54;15.20;73.30
27314;DHT22;14800;48.174;9.798;2023-10-08T06:39:23;15.20;73.50
27314;DHT22;14800;48.174;9.798;2023-10-08T06:41:59;15.20;73.70
27314;DHT22;14800;48.174;9.798;2023-10-08T06:44:25;15.20;73.70
27314;DHT22;14800;48.174;9.798;2023-10-08T06:46:53;15.20;73.80
27314;DHT22;14800;48.174;9.798;2023-10-08T06:49:20;15.20;73.80
27314;DHT22;14800;48.174;9.798;2023-10-08T06:51:49;15.30;73.90
27314;DHT22;14800;48.174;9.798;2023-10-08T06:54:16;15.30;73.90
27314;DHT22;14800;48.174;9.798;2023-10-08T06:56:43;15.30;74.00
27314;DHT22;14800;48.174;9.798;2023-10-08T06:59:14;15.30;74.00
27314;DHT22;14800;48.174;9.798;2023-10-08T07:01:42;15.40;74.20
27314;DHT22;14800;48.174;9.798;2023-10-08T07:04:12;15.40;74.20
27314;DHT22;14800;48.174;9.798;2023-10-08T07:06:44;15.50;74.30
27314;DHT22;14800;48.174;9.798;2023-10-08T07:09:12;15.60;75.60
27314;DHT22;14800;48.174;9.798;2023-10-08T07:11:50;15.60;74.40
27314;DHT22;14800;48.174;9.798;2023-10-08T07:14:23;15.60;74.40
27314;DHT22;14800;48.174;9.798;2023-10-08T07:16:55;15.70;74.60
27314;DHT22;14800;48.174;9.798;2023-10-08T07:19:24;15.80;74.70
27314;DHT22;14800;48.174;9.798;2023-10-08T07:21:59;15.80;74.70
27314;DHT22;14800;48.174;9.798;2023-10-08T07:24:29;15.90;74.60
27314;DHT22;14800;48.174;9.798;2023-10-08T07:26:56;16.00;74.60
27314;DHT22;14800;48.174;9.798;2023-10-08T07:29:22;16.10;74.60
27314;DHT22;14800;48.174;9.798;2023-10-08T07:31:48;16.20;74.50
27314;DHT22;14800;48.174;9.798;2023-10-08T07:34:18;16.30;74.30
27314;DHT22;14800;48.174;9.798;2023-10-08T07:36:51;16.40;74.10
27314;DHT22;14800;48.174;9.798;2023-10-08T07:39:18;16.50;73.90
27314;DHT22;14800;48.174;9.798;2023-10-08T07:41:50;16.60;73.50
27314;DHT22;14800;48.174;9.798;2023-10-08T07:44:16;16.70;73.30
27314;DHT22;14800;48.174;9.798;2023-10-08T07:46:41;16.80;73.00
27314;DHT22;14800;48.174;9.798;2023-10-08T07:49:07;16.90;72.70
27314;DHT22;14800;48.174;9.798;2023-10-08T07:51:32;17.00;72.50
27314;DHT22;14800;48.174;9.798;2023-10-08T07:53:59;17.10;72.30
27314;DHT22;14800;48.174;9.798;2023-10-08T07:56:25;17.20;72.30
27314;DHT22;14800;48.174;9.798;2023-10-08T07:58:52;17.30;72.30
27314;DHT22;14800;48.174;9.798;2023-10-08T08:01:17;17.40;72.10
27314;DHT22;14800;48.174;9.798;2023-10-08T08:03:46;17.50;72.00
27314;DHT22;14800;48.174;9.798;2023-10-08T08:06:14;17.60;71.90
27314;DHT22;14800;48.174;9.798;2023-10-08T08:08:41;17.70;72.10
27314;DHT22;14800;48.174;9.798;2023-10-08T08:11:08;17.80;71.80
27314;DHT22;14800;48.174;9.798;2023-10-08T08:13:46;17.90;71.80
27314;DHT22;14800;48.174;9.798;2023-10-08T08:16:12;18.00;71.50
27314;DHT22;14800;48.174;9.798;2023-10-08T08:18:46;18.10;71.40
27314;DHT22;14800;48.174;9.798;2023-10-08T08:21:13;18.20;71.30
27314;DHT22;14800;48.174;9.798;2023-10-08T08:23:45;18.30;71.30
27314;DHT22;14800;48.174;9.798;2023-10-08T08:26:21;18.30;71.40
27314;DHT22;14800;48.174;9.798;2023-10-08T08:29:01;18.40;71.30
27314;DHT22;14800;48.174;9.798;2023-10-08T08:31:30;18.60;71.20
27314;DHT22;14800;48.174;9.798;2023-10-08T08:33:57;18.70;71.10
27314;DHT22;14800;48.174;9.798;2023-10-08T08:36:27;18.80;71.10
27314;DHT22;14800;48.174;9.798;2023-10-08T08:38:53;18.90;70.80
27314;DHT22;14800;48.174;9.798;2023-10-08T08:41:19;19.00;70.90
27314;DHT22;14800;48.174;9.798;2023-10-08T08:43:53;19.10;70.90
27314;DHT22;14800;48.174;9.798;2023-10-08T08:46:31;19.30;71.40
27314;DHT22;14800;48.174;9.798;2023-10-08T08:49:04;19.40;70.00
27314;DHT22;14800;48.174;9.798;2023-10-08T08:51:30;19.40;69.80
27314;DHT22;14800;48.174;9.798;2023-10-08T08:53:56;19.60;69.80
27314;DHT22;14800;48.174;9.798;2023-10-08T08:56:26;19.70;70.10
27314;DHT22;14800;48.174;9.798;2023-10-08T08:58:54;19.70;69.30
27314;DHT22;14800;48.174;9.798;2023-10-08T09:01:20;19.80;69.10
27314;DHT22;14800;48.174;9.798;2023-10-08T09:03:46;19.80;68.50
27314;DHT22;14800;48.174;9.798;2023-10-08T09:06:14;19.90;68.30
27314;DHT22;14800;48.174;9.798;2023-10-08T09:08:39;19.90;68.20
27314;DHT22;14800;48.174;9.798;2023-10-08T09:11:17;19.90;67.80
27314;DHT22;14800;48.174;9.798;2023-10-08T09:13:43;20.00;67.60
27314;DHT22;14800;48.174;9.798;2023-10-08T09:16:14;20.00;67.60
27314;DHT22;14800;48.174;9.798;2023-10-08T09:18:44;20.00;67.50
27314;DHT22;14800;48.174;9.798;2023-10-08T09:21:11;20.00;67.60
27314;DHT22;14800;48.174;9.798;2023-10-08T09:23:44;20.00;67.50
27314;DHT22;14800;48.174;9.798;2023-10-08T09:26:16;20.10;67.60
27314;DHT22;14800;48.174;9.798;2023-10-08T09:28:46;20.10;67.70
27314;DHT22;14800;48.174;9.798;2023-10-08T09:31:13;20.10;67.60
27314;DHT22;14800;48.174;9.798;2023-10-08T09:33:39;20.10;67.80
27314;DHT22;14800;48.174;9.798;2023-10-08T09:36:05;20.10;67.80
27314;DHT22;14800;48.174;9.798;2023-10-08T09:38:35;20.10;67.60
27314;DHT22;14800;48.174;9.798;2023-10-08T09:41:02;20.20;67.20
27314;DHT22;14800;48.174;9.798;2023-10-08T09:43:31;20.20;67.20
27314;DHT22;14800;48.174;9.798;2023-10-08T09:46:18;20.20;67.10
27314;DHT22;14800;48.174;9.798;2023-10-08T09:48:59;20.30;67.00
27314;DHT22;14800;48.174;9.798;2023-10-08T09:51:29;20.40;67.40
27314;DHT22;14800;48.174;9.798;2023-10-08T09:56:36;20.60;66.90
27314;DHT22;14800;48.174;9.798;2023-10-08T09:59:02;20.70;66.90
27314;DHT22;14800;48.174;9.798;2023-10-08T10:01:28;20.70;66.70
27314;DHT22;14800;48.174;9.798;2023-10-08T10:03:57;20.90;66.90
27314;DHT22;14800;48.174;9.798;2023-10-08T10:06:25;21.00;67.00
27314;DHT22;14800;48.174;9.798;2023-10-08T10:08:52;21.10;66.60
27314;DHT22;14800;48.174;9.798;2023-10-08T10:11:25;21.20;66.40
27314;DHT22;14800;48.174;9.798;2023-10-08T10:13:58;21.40;65.90
27314;DHT22;14800;48.174;9.798;2023-10-08T10:16:27;21.50;65.50
27314;DHT22;14800;48.174;9.798;2023-10-08T10:18:56;21.60;65.40
27314;DHT22;14800;48.174;9.798;2023-10-08T10:21:33;21.70;64.70
27314;DHT22;14800;48.174;9.798;2023-10-08T10:23:59;21.70;64.40
27314;DHT22;14800;48.174;9.798;2023-10-08T10:34:18;22.20;62.10
27314;DHT22;14800;48.174;9.798;2023-10-08T10:36:49;22.30;61.50
27314;DHT22;14800;48.174;9.798;2023-10-08T10:39:19;22.30;61.30
27314;DHT22;14800;48.174;9.798;2023-10-08T10:42:00;22.40;61.90
27314;DHT22;14800;48.174;9.798;2023-10-08T10:44:32;22.40;62.20
27314;DHT22;14800;48.174;9.798;2023-10-08T10:46:58;22.50;62.60
27314;DHT22;14800;48.174;9.798;2023-10-08T10:49:44;22.50;62.40
27314;DHT22;14800;48.174;9.798;2023-10-08T10:52:25;22.60;62.60
27314;DHT22;14800;48.174;9.798;2023-10-08T10:55:07;22.60;62.10
27314;DHT22;14800;48.174;9.798;2023-10-08T10:57:55;22.70;61.90
27314;DHT22;14800;48.174;9.798;2023-10-08T11:00:23;22.60;61.70
27314;DHT22;14800;48.174;9.798;2023-10-08T11:02:58;22.60;62.00
27314;DHT22;14800;48.174;9.798;2023-10-08T11:05:46;22.60;62.30
27314;DHT22;14800;48.174;9.798;2023-10-08T11:08:15;22.50;62.40
27314;DHT22;14800;48.174;9.798;2023-10-08T11:10:44;22.50;62.60
27314;DHT22;14800;48.174;9.798;2023-10-08T11:13:16;22.50;62.70
27314;DHT22;14800;48.174;9.798;2023-10-08T11:15:43;22.50;62.90
27314;DHT22;14800;48.174;9.798;2023-10-08T11:18:14;22.50;62.80
27314;DHT22;14800;48.174;9.798;2023-10-08T11:20:41;22.50;63.00
27314;DHT22;14800;48.174;9.798;2023-10-08T11:23:10;22.50;63.10
27314;DHT22;14800;48.174;9.798;2023-10-08T11:25:59;22.50;63.20
27314;DHT22;14800;48.174;9.798;2023-10-08T11:28:38;22.50;62.70
27314;DHT22;14800;48.174;9.798;2023-10-08T11:31:10;22.50;62.90
27314;DHT22;14800;48.174;9.798;2023-10-08T11:33:37;22.50;62.90
27314;DHT22;14800;48.174;9.798;2023-10-08T11:36:06;22.60;63.00
27314;DHT22;14800;48.174;9.798;2023-10-08T11:38:42;22.60;63.10
27314;DHT22;14800;48.174;9.798;2023-10-08T11:41:25;22.60;62.90
27314;DHT22;14800;48.174;9.798;2023-10-08T11:43:54;22.70;63.30
27314;DHT22;14800;48.174;9.798;2023-10-08T11:46:32;22.70;63.00
27314;DHT22;14800;48.174;9.798;2023-10-08T11:49:04;22.60;62.90
27314;DHT22;14800;48.174;9.798;2023-10-08T11:51:34;22.50;62.90
27314;DHT22;14800;48.174;9.798;2023-10-08T11:54:01;22.50;63.70
27314;DHT22;14800;48.174;9.798;2023-10-08T11:56:30;22.50;62.90
27314;DHT22;14800;48.174;9.798;2023-10-08T11:58:57;22.50;62.60
27314;DHT22;14800;48.174;9.798;2023-10-08T12:01:24;22.50;62.70
27314;DHT22;14800;48.174;9.798;2023-10-08T12:03:50;22.50;63.10
27314;DHT22;14800;48.174;9.798;2023-10-08T12:06:16;22.50;63.30
27314;DHT22;14800;48.174;9.798;2023-10-08T12:08:47;22.50;63.00
27314;DHT22;14800;48.174;9.798;2023-10-08T12:11:19;22.50;62.90
27314;DHT22;14800;48.174;9.798;2023-10-08T12:13:44;22.50;64.00
27314;DHT22;14800;48.174;9.798;2023-10-08T12:16:14;22.50;63.40
27314;DHT22;14800;48.174;9.798;2023-10-08T12:18:49;22.60;62.80
27314;DHT22;14800;48.174;9.798;2023-10-08T12:21:28;22.60;63.10
27314;DHT22;14800;48.174;9.798;2023-10-08T12:23:57;22.70;62.90
27314;DHT22;14800;48.174;9.798;2023-10-08T12:26:24;22.70;62.90
27314;DHT22;14800;48.174;9.798;2023-10-08T12:28:50;22.70;62.70
27314;DHT22;14800;48.174;9.798;2023-10-08T12:31:19;22.70;62.70
27314;DHT22;14800;48.174;9.798;2023-10-08T12:33:48;22.80;62.90
27314;DHT22;14800;48.174;9.798;2023-10-08T12:36:14;22.80;62.70
27314;DHT22;14800;48.174;9.798;2023-10-08T12:38:42;22.80;62.80
27314;DHT22;14800;48.174;9.798;2023-10-08T12:41:11;22.80;62.70
27314;DHT22;14800;48.174;9.798;2023-10-08T12:43:41;22.90;62.40
27314;DHT22;14800;48.174;9.798;2023-10-08T12:46:12;22.90;62.20
27314;DHT22;14800;48.174;9.798;2023-10-08T12:48:44;23.00;62.00
27314;DHT22;14800;48.174;9.798;2023-10-08T12:51:13;23.00;61.90
27314;DHT22;14800;48.174;9.798;2023-10-08T12:53:39;23.00;61.70
27314;DHT22;14800;48.174;9.798;2023-10-08T12:56:06;23.00;61.90
27314;DHT22;14800;48.174;9.798;2023-10-08T12:58:35;23.00;61.90
27314;DHT22;14800;48.174;9.798;2023-10-08T13:01:13;23.00;62.10
27314;DHT22;14800;48.174;9.798;2023-10-08T13:03:40;23.10;61.70
27314;DHT22;14800;48.174;9.798;2023-10-08T13:06:18;23.10;61.90
27314;DHT22;14800;48.174;9.798;2023-10-08T13:08:51;23.20;62.00
27314;DHT22;14800;48.174;9.798;2023-10-08T13:11:21;23.20;61.90
27314;DHT22;14800;48.174;9.798;2023-10-08T13:13:56;23.30;61.90
27314;DHT22;14800;48.174;9.798;2023-10-08T13:16:25;23.30;61.30
27314;DHT22;14800;48.174;9.798;2023-10-08T13:18:51;23.30;61.70
27314;DHT22;14800;48.174;9.798;2023-10-08T13:21:18;23.40;61.50
27314;DHT22;14800;48.174;9.798;2023-10-08T13:23:53;23.40;61.40
27314;DHT22;14800;48.174;9.798;2023-10-08T13:26:19;23.40;61.50
27314;DHT22;14800;48.174;9.798;2023-10-08T13:28:48;23.30;61.30
27314;DHT22;14800;48.174;9.798;2023-10-08T13:31:14;23.40;61.10
27314;DHT22;14800;48.174;9.798;2023-10-08T13:33:42;23.30;60.80
27314;DHT22;14800;48.174;9.798;2023-10-08T13:36:10;23.30;60.60
27314;DHT22;14800;48.174;9.798;2023-10-08T13:38:37;23.30;60.70
27314;DHT22;14800;48.174;9.798;2023-10-08T13:41:04;23.30;61.00
27314;DHT22;14800;48.174;9.798;2023-10-08T13:43:35;23.30;61.00
27314;DHT22;14800;48.174;9.798;2023-10-08T13:46:05;23.30;60.50
27314;DHT22;14800;48.174;9.798;2023-10-08T13:48:33;23.30;60.30
27314;DHT22;14800;48.174;9.798;2023-10-08T13:51:00;23.30;60.10
27314;DHT22;14800;48.174;9.798;2023-10-08T13:53:26;23.30;60.10
27314;DHT22;14800;48.174;9.798;2023-10-08T13:55:57;23.30;60.20
27314;DHT22;14800;48.174;9.798;2023-10-08T13:58:24;23.40;60.00
27314;DHT22;14800;48.174;9.798;2023-10-08T14:00:50;23.30;60.20
27314;DHT22;14800;48.174;9.798;2023-10-08T14:03:18;23.40;60.30
27314;DHT22;14800;48.174;9.798;2023-10-08T14:05:47;23.30;60.30
27314;DHT22;14800;48.174;9.798;2023-10-08T14:08:16;23.40;60.30
27314;DHT22;14800;48.174;9.798;2023-10-08T14:10:43;23.40;60.00
27314;DHT22;14800;48.174;9.798;2023-10-08T14:13:09;23.40;60.10
27314;DHT22;14800;48.174;9.798;2023-10-08T14:15:35;23.30;59.90
27314;DHT22;14800;48.174;9.798;2023-10-08T14:18:08;23.40;59.80
27314;DHT22;14800;48.174;9.798;2023-10-08T14:20:34;23.40;59.70
27314;DHT22;14800;48.174;9.798;2023-10-08T14:22:59;23.40;59.90
27314;DHT22;14800;48.174;9.798;2023-10-08T14:25:27;23.40;59.90
27314;DHT22;14800;48.174;9.798;2023-10-08T14:27:59;23.40;59.90
27314;DHT22;14800;48.174;9.798;2023-10-08T14:30:31;23.40;59.90
27314;DHT22;14800;48.174;9.798;2023-10-08T14:32:58;23.40;60.50
27314;DHT22;14800;48.174;9.798;2023-10-08T14:35:24;23.40;59.80
27314;DHT22;14800;48.174;9.798;2023-10-08T14:38:09;23.40;59.90
27314;DHT22;14800;48.174;9.798;2023-10-08T14:40:53;23.40;60.10
27314;DHT22;14800;48.174;9.798;2023-10-08T14:43:37;23.40;59.90
27314;DHT22;14800;48.174;9.798;2023-10-08T14:46:03;23.50;59.60
27314;DHT22;14800;48.174;9.798;2023-10-08T14:48:32;23.50;59.70
27314;DHT22;14800;48.174;9.798;2023-10-08T14:51:01;23.50;59.60
27314;DHT22;14800;48.174;9.798;2023-10-08T14:53:28;23.50;59.80
27314;DHT22;14800;48.174;9.798;2023-10-08T14:55:55;23.40;59.90
27314;DHT22;14800;48.174;9.798;2023-10-08T14:58:21;23.40;59.90
27314;DHT22;14800;48.174;9.798;2023-10-08T15:00:47;23.40;60.00
27314;DHT22;14800;48.174;9.798;2023-10-08T15:03:14;23.50;60.10
27314;DHT22;14800;48.174;9.798;2023-10-08T15:05:39;23.50;60.10
27314;DHT22;14800;48.174;9.798;2023-10-08T15:08:08;23.50;60.10
27314;DHT22;14800;48.174;9.798;2023-10-08T15:10:35;23.50;60.10
27314;DHT22;14800;48.174;9.798;2023-10-08T15:13:01;23.50;60.10
27314;DHT22;14800;48.174;9.798;2023-10-08T15:15:26;23.50;60.30
27314;DHT22;14800;48.174;9.798;2023-10-08T15:17:57;23.50;60.40
27314;DHT22;14800;48.174;9.798;2023-10-08T15:20:22;23.40;60.60
27314;DHT22;14800;48.174;9.798;2023-10-08T15:22:49;23.40;60.80
27314;DHT22;14800;48.174;9.798;2023-10-08T15:25:16;23.40;60.60
27314;DHT22;14800;48.174;9.798;2023-10-08T15:27:45;23.40;60.60
27314;DHT22;14800;48.174;9.798;2023-10-08T15:30:14;23.40;60.70
27314;DHT22;14800;48.174;9.798;2023-10-08T15:32:42;23.40;60.60
27314;DHT22;14800;48.174;9.798;2023-10-08T15:35:12;23.50;60.80
27314;DHT22;14800;48.174;9.798;2023-10-08T15:37:40;23.50;60.80
27314;DHT22;14800;48.174;9.798;2023-10-08T15:40:07;23.50;60.80
27314;DHT22;14800;48.174;9.798;2023-10-08T15:42:33;23.50;60.80
27314;DHT22;14800;48.174;9.798;2023-10-08T15:45:01;23.40;61.00
27314;DHT22;14800;48.174;9.798;2023-10-08T15:47:28;23.40;60.90
27314;DHT22;14800;48.174;9.798;2023-10-08T15:49:53;23.40;61.20
27314;DHT22;14800;48.174;9.798;2023-10-08T15:52:19;23.50;61.40
27314;DHT22;14800;48.174;9.798;2023-10-08T15:54:45;23.50;61.50
27314;DHT22;14800;48.174;9.798;2023-10-08T15:57:11;23.40;61.50
27314;DHT22;14800;48.174;9.798;2023-10-08T15:59:37;23.40;61.70
27314;DHT22;14800;48.174;9.798;2023-10-08T16:02:02;23.40;61.70